Time;durP1;ratioP1;P1;durP2;ratioP2;P2;SDS_P1;SDS_P2;PMS_P1;PMS_P2;Temp;Humidity;BMP_temperature;BMP_pressure;BME280_temperature;BME280_humidity;BME280_pressure;Samples;Min_cycle;Max_cycle;Signal;HPM_P1;HPM_P2
2022/12/25 00:01:59;;;;;;;9.33;5.03;;;8.30;99.90;;;;;;5068279;28;20289;-76
2022/12/25 00:04:25;;;;;;;5.50;3.97;;;8.30;99.90;;;;;;5053945;28;20475;-77
2022/12/25 00:06:50;;;;;;;14.77;5.00;;;8.40;99.90;;;;;;5054751;28;20178;-76
2022/12/25 00:09:16;;;;;;;8.80;3.90;;;8.40;99.90;;;;;;5072401;28;20178;-77
2022/12/25 00:11:42;;;;;;;7.20;3.27;;;8.50;99.90;;;;;;5072626;28;20167;-77
2022/12/25 00:14:07;;;;;;;5.70;3.80;;;8.50;99.90;;;;;;5068977;28;20249;-76
2022/12/25 00:16:33;;;;;;;9.30;4.87;;;8.60;99.90;;;;;;5069650;28;20674;-76
2022/12/25 00:18:59;;;;;;;5.60;4.57;;;8.60;99.90;;;;;;5060586;28;20175;-77
2022/12/25 00:21:26;;;;;;;7.40;5.17;;;8.70;99.90;;;;;;5045491;28;20186;-77
2022/12/25 00:23:57;;;;;;;8.57;3.90;;;8.60;99.90;;;;;;5066619;28;20800;-76
2022/12/25 00:26:23;;;;;;;14.47;4.73;;;8.70;99.90;;;;;;5054236;28;20436;-76
2022/12/25 00:28:52;;;;;;;7.93;4.90;;;8.60;99.90;;;;;;5069229;28;20483;-77
2022/12/25 00:31:18;;;;;;;8.57;3.67;;;8.50;99.90;;;;;;5071480;28;20427;-76
2022/12/25 00:33:45;;;;;;;9.70;5.10;;;8.50;99.90;;;;;;5054212;28;20409;-76
2022/12/25 00:36:12;;;;;;;8.20;5.20;;;8.50;99.90;;;;;;5053786;28;20201;-77
2022/12/25 00:38:39;;;;;;;10.40;4.73;;;8.40;99.90;;;;;;5072205;28;20538;-76
2022/12/25 00:41:06;;;;;;;28.63;5.67;;;8.40;99.90;;;;;;5072031;28;20439;-77
2022/12/25 00:43:32;;;;;;;10.30;5.20;;;8.50;99.90;;;;;;5071687;28;20936;-77
2022/12/25 00:45:59;;;;;;;9.00;4.10;;;8.50;99.90;;;;;;5071796;28;20428;-76
2022/12/25 00:48:25;;;;;;;5.23;3.90;;;8.50;99.90;;;;;;5072089;28;20184;-76
2022/12/25 00:50:55;;;;;;;8.80;3.43;;;8.60;99.90;;;;;;5072039;28;20408;-76
2022/12/25 00:53:21;;;;;;;8.50;4.80;;;8.60;99.90;;;;;;5070638;28;20953;-76
2022/12/25 00:55:55;;;;;;;9.47;4.60;;;8.70;99.90;;;;;;5071106;28;20436;-76
2022/12/25 00:58:22;;;;;;;10.83;5.07;;;8.70;99.90;;;;;;5071594;28;20417;-77
2022/12/25 01:00:48;;;;;;;11.87;4.83;;;8.70;99.90;;;;;;5073127;28;20460;-77
2022/12/25 01:03:15;;;;;;;9.40;4.20;;;8.70;99.90;;;;;;5076024;28;20411;-77
2022/12/25 01:05:40;;;;;;;8.27;4.17;;;8.70;99.90;;;;;;5075525;28;20448;-77
2022/12/25 01:08:06;;;;;;;14.63;3.97;;;8.70;99.90;;;;;;5076004;28;20408;-77
2022/12/25 01:10:32;;;;;;;6.57;3.73;;;8.70;99.90;;;;;;5063136;28;20817;-77
2022/12/25 01:12:57;;;;;;;9.90;3.80;;;8.70;99.90;;;;;;5075820;28;20171;-77
2022/12/25 01:15:23;;;;;;;7.70;4.93;;;8.60;99.90;;;;;;5075259;28;20208;-77
2022/12/25 01:17:48;;;;;;;9.20;4.57;;;8.60;99.90;;;;;;5075641;28;20178;-77
2022/12/25 01:20:15;;;;;;;6.17;4.00;;;8.60;99.90;;;;;;5057730;28;20194;-76
2022/12/25 01:22:41;;;;;;;9.47;4.37;;;8.60;99.90;;;;;;5075588;28;20249;-77
2022/12/25 01:25:08;;;;;;;10.00;4.60;;;8.60;99.90;;;;;;5072558;28;20448;-77
2022/12/25 01:27:34;;;;;;;12.97;4.60;;;8.60;99.90;;;;;;5054463;28;20433;-76
2022/12/25 01:29:59;;;;;;;7.90;5.33;;;8.50;99.90;;;;;;5074938;28;20405;-77
2022/12/25 01:32:25;;;;;;;11.60;4.73;;;8.60;99.90;;;;;;5057053;28;20408;-76
2022/12/25 01:34:51;;;;;;;17.00;4.80;;;8.70;99.90;;;;;;5074813;28;20182;-76
2022/12/25 01:37:16;;;;;;;8.50;4.60;;;8.70;99.90;;;;;;5075252;28;20168;-76
2022/12/25 01:39:42;;;;;;;9.90;4.30;;;8.80;99.90;;;;;;5075025;28;20159;-77
2022/12/25 01:42:18;;;;;;;14.10;4.20;;;8.80;99.90;;;;;;5074434;28;20178;-76
2022/12/25 01:44:47;;;;;;;13.73;4.27;;;8.80;99.90;;;;;;5070546;28;20218;-76
2022/12/25 01:47:15;;;;;;;8.03;4.40;;;8.80;99.90;;;;;;5055567;28;20515;-77
2022/12/25 01:49:42;;;;;;;6.00;4.20;;;8.80;99.90;;;;;;5072952;28;20439;-76
2022/12/25 01:52:12;;;;;;;11.53;7.10;;;8.80;99.90;;;;;;5070547;28;20416;-77
2022/12/25 01:54:42;;;;;;;13.63;4.77;;;8.80;99.90;;;;;;5070417;28;21091;-76
2022/12/25 01:57:15;;;;;;;5.93;3.83;;;8.90;99.90;;;;;;5056710;28;20447;-77
2022/12/25 01:59:41;;;;;;;6.20;3.87;;;8.90;99.90;;;;;;5074800;28;20408;-76
2022/12/25 02:02:07;;;;;;;7.53;4.73;;;8.90;99.90;;;;;;5074724;28;20534;-76
2022/12/25 02:04:39;;;;;;;8.57;4.43;;;9.00;99.90;;;;;;5074302;28;20456;-76
2022/12/25 02:07:13;;;;;;;9.23;4.20;;;9.00;99.90;;;;;;5057139;28;20415;-77
2022/12/25 02:09:39;;;;;;;6.10;4.23;;;9.00;99.90;;;;;;5075458;28;20400;-77
2022/12/25 02:12:06;;;;;;;7.77;3.90;;;9.10;99.90;;;;;;5074126;28;20408;-77
2022/12/25 02:14:35;;;;;;;7.47;3.90;;;9.00;99.90;;;;;;5057019;28;20273;-77
2022/12/25 02:17:26;;;;;;;9.20;4.40;;;9.00;99.90;;;;;;5057434;28;20805;-77
2022/12/25 02:20:23;;;;;;;12.40;3.73;;;9.10;99.90;;;;;;5074296;28;20401;-77
2022/12/25 02:22:55;;;;;;;12.10;4.33;;;9.10;99.90;;;;;;5047415;28;20404;-77
2022/12/25 02:25:39;;;;;;;6.30;3.50;;;9.10;99.90;;;;;;5075096;28;20536;-77
2022/12/25 02:28:08;;;;;;;7.93;4.00;;;9.00;99.90;;;;;;5071306;28;20790;-77
2022/12/25 02:31:02;;;;;;;10.80;3.77;;;9.10;99.90;;;;;;5057144;28;20409;-77
2022/12/25 02:34:02;;;;;;;13.90;4.23;;;9.10;99.90;;;;;;5074944;28;20906;-77
2022/12/25 02:36:36;;;;;;;5.13;3.40;;;9.10;99.90;;;;;;5056825;28;20442;-77
2022/12/25 02:41:59;;;;;;;7.43;3.13;;;9.10;99.90;;;;;;5074943;28;20498;-77
2022/12/25 03:07:10;;;;;;;11.27;4.20;;;8.80;99.90;;;;;;5074445;28;20462;-77
2022/12/25 03:12:34;;;;;;;8.60;3.50;;;8.70;99.90;;;;;;5074355;28;20412;-77
2022/12/25 03:17:44;;;;;;;6.60;3.70;;;8.80;99.90;;;;;;5074263;28;20399;-77
2022/12/25 03:28:33;;;;;;;8.40;3.70;;;9.00;99.90;;;;;;5071267;28;20474;-77
2022/12/25 03:31:34;;;;;;;11.47;4.03;;;9.00;99.90;;;;;;5073967;28;20437;-77
2022/12/25 04:37:55;;;;;;;3.83;2.80;;;9.60;99.90;;;;;;5073956;28;20399;-77
2022/12/25 04:40:20;;;;;;;4.43;2.67;;;9.60;99.90;;;;;;5054115;28;20829;-77
2022/12/25 04:42:46;;;;;;;5.00;2.47;;;9.60;99.90;;;;;;5062507;28;20414;-78
2022/12/25 04:45:11;;;;;;;4.80;2.60;;;9.50;99.90;;;;;;5052953;28;20191;-77
2022/12/25 04:47:37;;;;;;;7.23;1.80;;;9.50;99.90;;;;;;5055468;28;20180;-77
2022/12/25 04:50:03;;;;;;;5.90;2.90;;;9.50;99.90;;;;;;5073408;28;20216;-77
2022/12/25 04:52:32;;;;;;;5.10;2.73;;;9.40;99.90;;;;;;5073293;28;20250;-77
2022/12/25 04:54:58;;;;;;;4.27;3.17;;;9.30;99.90;;;;;;5055268;28;21147;-77
2022/12/25 04:57:23;;;;;;;3.77;2.77;;;9.20;99.90;;;;;;5055239;28;20412;-77
2022/12/25 04:59:49;;;;;;;3.93;2.87;;;9.00;99.90;;;;;;5072757;28;20163;-77
2022/12/25 05:02:14;;;;;;;6.97;3.30;;;9.00;99.90;;;;;;5072401;28;20543;-77
2022/12/25 05:04:40;;;;;;;2.87;2.20;;;8.90;99.90;;;;;;5071863;28;20194;-77
2022/12/25 05:07:05;;;;;;;4.70;3.00;;;8.90;99.90;;;;;;5072235;28;20185;-77
2022/12/25 05:09:31;;;;;;;4.00;3.23;;;8.90;99.90;;;;;;5054392;28;20174;-76
2022/12/25 05:11:56;;;;;;;4.43;2.23;;;8.90;99.90;;;;;;5072007;28;20175;-77
2022/12/25 05:14:22;;;;;;;3.80;1.93;;;8.90;99.90;;;;;;5071528;28;20702;-76
2022/12/25 05:16:47;;;;;;;3.63;2.03;;;8.80;99.90;;;;;;5071770;28;20189;-76
2022/12/25 05:19:13;;;;;;;5.17;2.60;;;8.60;99.90;;;;;;5071905;28;20230;-76
2022/12/25 05:21:38;;;;;;;12.70;2.70;;;8.60;99.90;;;;;;5071747;28;20202;-76
2022/12/25 05:24:04;;;;;;;4.27;2.60;;;8.60;99.90;;;;;;5053758;28;20174;-76
2022/12/25 05:26:30;;;;;;;2.43;2.23;;;8.70;99.90;;;;;;5053480;28;20174;-76
2022/12/25 05:28:55;;;;;;;4.50;2.17;;;8.70;99.90;;;;;;5067810;28;20186;-77
2022/12/25 05:31:21;;;;;;;3.47;2.10;;;8.60;99.90;;;;;;5071686;28;20174;-77
2022/12/25 05:33:51;;;;;;;6.80;2.27;;;8.70;99.90;;;;;;5071738;28;20201;-76
2022/12/25 05:36:17;;;;;;;2.60;1.73;;;8.70;99.90;;;;;;5053617;28;20221;-76
2022/12/25 05:38:42;;;;;;;3.90;2.10;;;8.70;99.90;;;;;;5053864;28;20450;-76
2022/12/25 05:41:08;;;;;;;2.53;1.83;;;8.60;99.90;;;;;;5072050;28;20217;-77
2022/12/25 05:43:34;;;;;;;3.73;2.27;;;8.70;99.90;;;;;;5053700;28;20170;-77
2022/12/25 05:46:05;;;;;;;4.43;1.90;;;8.80;99.90;;;;;;5071125;28;20500;-77
2022/12/25 05:48:31;;;;;;;8.83;2.60;;;8.90;99.90;;;;;;5057140;28;20174;-76
2022/12/25 05:50:56;;;;;;;2.43;1.70;;;9.00;99.90;;;;;;5075050;28;20401;-76
2022/12/25 05:53:22;;;;;;;4.70;2.37;;;9.10;99.90;;;;;;5056841;28;21002;-77
2022/12/25 05:55:47;;;;;;;4.00;2.03;;;9.20;99.90;;;;;;5057132;28;20186;-77
2022/12/25 05:58:13;;;;;;;3.03;2.40;;;9.20;99.90;;;;;;5057126;28;20253;-77
2022/12/25 06:00:39;;;;;;;11.07;2.80;;;9.30;99.90;;;;;;5075182;28;20198;-77
2022/12/25 06:03:05;;;;;;;6.43;1.70;;;9.40;99.90;;;;;;5074936;28;20171;-77
2022/12/25 06:05:31;;;;;;;3.97;1.77;;;9.30;99.90;;;;;;5074532;28;20435;-77
2022/12/25 06:07:56;;;;;;;2.57;2.00;;;9.30;99.90;;;;;;5057140;28;20171;-77
2022/12/25 06:10:22;;;;;;;3.83;2.03;;;9.30;99.90;;;;;;5075060;28;20178;-77
2022/12/25 06:12:48;;;;;;;5.03;4.30;;;9.30;99.90;;;;;;5074721;28;20509;-77
2022/12/25 06:15:13;;;;;;;4.10;2.47;;;9.20;99.90;;;;;;5074627;28;20198;-76
2022/12/25 06:17:39;;;;;;;4.53;1.83;;;9.20;99.90;;;;;;5074959;28;20538;-77
2022/12/25 06:20:06;;;;;;;3.43;1.73;;;9.20;99.90;;;;;;5074530;28;20173;-77
2022/12/25 06:22:33;;;;;;;4.57;2.20;;;9.10;99.90;;;;;;5074464;28;20177;-76
2022/12/25 06:24:58;;;;;;;4.50;2.13;;;9.20;99.90;;;;;;5056144;28;20489;-77
2022/12/25 06:27:24;;;;;;;3.23;1.90;;;9.30;99.90;;;;;;5052715;28;20441;-77
2022/12/25 06:29:50;;;;;;;2.97;2.63;;;9.30;99.90;;;;;;5070720;28;20177;-76
2022/12/25 06:32:15;;;;;;;3.20;1.80;;;9.40;99.90;;;;;;5074349;28;20174;-76
2022/12/25 06:34:41;;;;;;;8.27;2.47;;;9.40;99.90;;;;;;5055953;28;20281;-77
2022/12/25 06:37:06;;;;;;;6.20;2.13;;;9.40;99.90;;;;;;5054770;28;20201;-77
2022/12/25 06:39:32;;;;;;;9.90;2.63;;;9.30;99.90;;;;;;5074102;28;20267;-76
2022/12/25 06:41:58;;;;;;;5.57;3.13;;;9.30;99.90;;;;;;5073798;28;20202;-77
2022/12/25 06:44:24;;;;;;;5.00;3.10;;;9.20;99.90;;;;;;5055773;28;20196;-77
2022/12/25 06:46:52;;;;;;;8.83;2.10;;;9.30;99.90;;;;;;5070714;28;20265;-77
2022/12/25 06:49:18;;;;;;;4.53;2.60;;;9.40;99.90;;;;;;5073937;28;20969;-76
2022/12/25 06:51:44;;;;;;;7.87;3.00;;;9.40;99.90;;;;;;5055826;28;20416;-77
2022/12/25 06:54:09;;;;;;;6.93;2.33;;;9.40;99.90;;;;;;5074420;28;20206;-77
2022/12/25 06:56:35;;;;;;;8.37;2.53;;;9.40;99.90;;;;;;5056221;28;20181;-77
2022/12/25 06:59:05;;;;;;;6.83;2.60;;;9.50;99.90;;;;;;5052339;28;20221;-76
2022/12/25 07:01:38;;;;;;;9.87;2.93;;;9.50;99.90;;;;;;5056042;28;20213;-76
2022/12/25 07:04:10;;;;;;;9.30;2.77;;;9.50;99.90;;;;;;5073696;28;20412;-76
2022/12/25 07:06:35;;;;;;;5.07;2.50;;;9.50;99.90;;;;;;5073545;28;20473;-77
2022/12/25 07:09:01;;;;;;;7.13;2.60;;;9.50;99.90;;;;;;5073447;28;20409;-76
2022/12/25 07:11:27;;;;;;;5.20;2.80;;;9.50;99.90;;;;;;5055660;28;20193;-76
2022/12/25 07:13:52;;;;;;;11.07;2.60;;;9.50;99.90;;;;;;5073455;28;20171;-77
2022/12/25 07:16:18;;;;;;;6.77;2.47;;;9.50;99.90;;;;;;5073011;28;20189;-77
2022/12/25 07:18:44;;;;;;;10.67;2.27;;;9.50;99.90;;;;;;5055375;28;20178;-77
2022/12/25 07:21:12;;;;;;;16.00;3.70;;;9.50;99.90;;;;;;5073135;28;20951;-77
2022/12/25 07:23:38;;;;;;;4.63;2.43;;;9.40;99.90;;;;;;5056062;28;20636;-77
2022/12/25 07:26:04;;;;;;;13.37;3.10;;;9.50;99.90;;;;;;5056259;28;20461;-77
2022/12/25 07:28:30;;;;;;;4.97;2.77;;;9.50;99.90;;;;;;5055348;28;20655;-77
2022/12/25 07:31:04;;;;;;;3.53;2.13;;;9.50;99.90;;;;;;5074300;28;20178;-76
2022/12/25 07:33:30;;;;;;;6.27;2.67;;;9.50;99.90;;;;;;5075026;28;20416;-77
2022/12/25 07:35:55;;;;;;;4.17;2.17;;;9.50;99.90;;;;;;5057514;28;20490;-77
2022/12/25 07:38:21;;;;;;;5.80;2.67;;;9.50;99.90;;;;;;5075710;28;20424;-77
2022/12/25 07:40:47;;;;;;;13.10;2.83;;;9.60;99.90;;;;;;5075593;28;20605;-77
2022/12/25 07:43:12;;;;;;;4.37;2.70;;;9.60;99.90;;;;;;5057163;28;20262;-77
2022/12/25 07:45:38;;;;;;;2.80;2.20;;;9.60;99.90;;;;;;5056725;28;20194;-77
2022/12/25 07:48:04;;;;;;;7.43;3.20;;;9.70;99.90;;;;;;5057760;28;20174;-77
2022/12/25 07:50:29;;;;;;;4.27;2.53;;;9.60;99.90;;;;;;5072867;28;20209;-77
2022/12/25 07:52:55;;;;;;;8.37;3.80;;;9.70;99.90;;;;;;5074631;28;20182;-77
2022/12/25 07:55:21;;;;;;;5.90;3.57;;;9.70;99.90;;;;;;5074255;28;20190;-77
2022/12/25 07:57:46;;;;;;;4.70;2.90;;;9.80;99.90;;;;;;5074909;28;20551;-77
2022/12/25 08:00:13;;;;;;;4.97;2.87;;;9.80;99.90;;;;;;5056743;28;20201;-77
2022/12/25 08:02:38;;;;;;;7.37;3.20;;;9.80;99.90;;;;;;5057327;28;20548;-77
2022/12/25 08:05:04;;;;;;;4.70;3.40;;;9.80;99.90;;;;;;5074123;28;20444;-77
2022/12/25 08:07:30;;;;;;;7.07;3.77;;;9.80;99.90;;;;;;5057108;28;20228;-77
2022/12/25 08:09:55;;;;;;;7.83;2.97;;;9.80;99.90;;;;;;5056264;28;20406;-77
2022/12/25 08:12:21;;;;;;;3.83;2.87;;;9.90;99.90;;;;;;5053506;28;20680;-77
2022/12/25 08:14:46;;;;;;;6.90;3.10;;;9.90;99.90;;;;;;5054199;28;20190;-76
2022/12/25 08:17:12;;;;;;;5.07;3.37;;;9.90;99.90;;;;;;5054283;28;20177;-77
2022/12/25 08:19:37;;;;;;;6.83;3.50;;;9.90;99.90;;;;;;5054360;28;20181;-77
2022/12/25 08:22:03;;;;;;;5.17;2.80;;;9.90;99.90;;;;;;5053654;28;20284;-77
2022/12/25 08:24:28;;;;;;;6.27;3.13;;;9.90;99.90;;;;;;5055924;28;20224;-77
2022/12/25 08:26:54;;;;;;;9.60;3.40;;;9.90;99.90;;;;;;5054974;28;20238;-77
2022/12/25 08:29:20;;;;;;;3.93;3.27;;;9.90;99.90;;;;;;5070431;28;20566;-77
2022/12/25 08:31:45;;;;;;;6.23;3.30;;;9.90;99.90;;;;;;5073516;28;20676;-77
2022/12/25 08:34:11;;;;;;;4.20;2.83;;;9.80;99.90;;;;;;5046906;28;20542;-76
2022/12/25 08:36:37;;;;;;;7.73;4.57;;;9.80;99.90;;;;;;5072378;28;20257;-77
2022/12/25 08:39:03;;;;;;;6.03;3.93;;;9.90;99.90;;;;;;5056871;28;20332;-77
2022/12/25 08:41:30;;;;;;;4.50;3.00;;;9.90;99.90;;;;;;5074926;28;20452;-77
2022/12/25 08:43:56;;;;;;;9.13;3.30;;;9.90;99.90;;;;;;5057160;28;20459;-77
2022/12/25 08:46:22;;;;;;;6.60;3.53;;;9.90;99.90;;;;;;5073702;28;20431;-76
2022/12/25 08:48:48;;;;;;;4.90;3.23;;;10.00;99.90;;;;;;5057605;28;20174;-77
2022/12/25 08:51:17;;;;;;;4.90;3.30;;;10.10;99.90;;;;;;5056789;28;20174;-77
2022/12/25 08:53:44;;;;;;;5.87;2.93;;;10.10;99.90;;;;;;5074442;28;20432;-77
2022/12/25 08:56:11;;;;;;;4.80;3.20;;;10.20;99.90;;;;;;5056289;28;20960;-77
2022/12/25 08:58:36;;;;;;;5.17;3.27;;;10.20;99.90;;;;;;5075229;28;20413;-77
2022/12/25 09:01:03;;;;;;;4.10;2.97;;;10.20;99.90;;;;;;5055955;28;20459;-77
2022/12/25 09:03:30;;;;;;;10.53;3.43;;;10.20;99.90;;;;;;5056080;28;20631;-77
2022/12/25 09:06:05;;;;;;;3.87;2.93;;;10.20;99.90;;;;;;5075383;28;20430;-77
2022/12/25 09:08:31;;;;;;;6.67;3.03;;;10.20;99.90;;;;;;5075530;28;20397;-77
2022/12/25 09:11:04;;;;;;;7.90;3.20;;;10.20;99.90;;;;;;5057687;28;20933;-77
2022/12/25 09:13:29;;;;;;;5.20;2.93;;;10.20;99.90;;;;;;5072332;28;20436;-77
2022/12/25 09:15:55;;;;;;;4.47;3.00;;;10.20;99.90;;;;;;5041115;28;20441;-77
2022/12/25 09:18:21;;;;;;;5.13;3.10;;;10.20;99.90;;;;;;5077350;28;20522;-77
2022/12/25 09:20:46;;;;;;;5.23;3.00;;;10.20;99.90;;;;;;5059290;28;20202;-77
2022/12/25 09:23:12;;;;;;;4.37;3.10;;;10.20;99.90;;;;;;5056266;28;20174;-77
2022/12/25 09:25:37;;;;;;;6.10;3.60;;;10.20;99.90;;;;;;5081186;28;20249;-77
2022/12/25 09:28:03;;;;;;;8.17;3.40;;;10.20;99.90;;;;;;5079632;28;20197;-76
2022/12/25 09:30:28;;;;;;;5.10;2.83;;;10.20;99.90;;;;;;5061992;28;20201;-77
2022/12/25 09:32:54;;;;;;;4.77;2.60;;;10.20;99.90;;;;;;5078843;28;20561;-77
2022/12/25 09:35:20;;;;;;;6.37;2.70;;;10.30;99.90;;;;;;5077406;28;20194;-77
2022/12/25 09:37:45;;;;;;;7.23;3.70;;;10.30;99.90;;;;;;5076881;28;20627;-76
2022/12/25 09:40:17;;;;;;;4.30;3.53;;;10.30;99.90;;;;;;5059248;28;20404;-76
2022/12/25 09:42:44;;;;;;;4.70;3.30;;;10.30;99.90;;;;;;5078170;28;20197;-77
2022/12/25 09:45:14;;;;;;;4.10;2.87;;;10.40;99.90;;;;;;5048213;28;20433;-77
2022/12/25 09:47:42;;;;;;;4.20;2.97;;;10.40;99.90;;;;;;5069606;28;20424;-76
2022/12/25 09:50:21;;;;;;;4.07;2.30;;;10.50;99.90;;;;;;5057837;28;20419;-77
2022/12/25 09:53:08;;;;;;;4.33;3.20;;;10.60;99.90;;;;;;5071303;28;20453;-77
2022/12/25 09:55:42;;;;;;;3.13;2.20;;;10.70;99.90;;;;;;5075297;28;20467;-77
2022/12/25 09:58:11;;;;;;;5.47;2.90;;;10.80;99.90;;;;;;5074623;28;20809;-77
2022/12/25 10:00:46;;;;;;;4.37;3.00;;;10.80;99.90;;;;;;5051779;28;20487;-77
2022/12/25 10:03:20;;;;;;;5.43;3.87;;;10.70;99.90;;;;;;5058611;28;20416;-77
2022/12/25 10:06:24;;;;;;;4.40;3.00;;;10.60;99.90;;;;;;5068807;28;20424;-77
2022/12/25 10:09:11;;;;;;;5.47;3.40;;;10.70;99.90;;;;;;5075533;28;21012;-77
2022/12/25 10:11:53;;;;;;;4.80;3.30;;;10.50;99.90;;;;;;5073075;28;20499;-76
2022/12/25 10:14:27;;;;;;;5.67;3.33;;;10.50;99.90;;;;;;5067795;28;20462;-77
2022/12/25 10:17:14;;;;;;;5.37;4.17;;;10.50;99.90;;;;;;5075788;28;20412;-76
2022/12/25 10:19:48;;;;;;;5.50;3.30;;;10.50;99.90;;;;;;5057208;28;20990;-77
2022/12/25 10:22:39;;;;;;;5.67;3.10;;;10.50;99.90;;;;;;5071813;28;20458;-77
2022/12/25 10:25:08;;;;;;;3.83;3.07;;;10.50;99.90;;;;;;5056645;28;20490;-77
2022/12/25 10:27:39;;;;;;;5.90;3.10;;;10.50;99.90;;;;;;5058227;28;20440;-77
2022/12/25 10:30:13;;;;;;;6.10;3.20;;;10.50;99.90;;;;;;5056993;28;20811;-77
2022/12/25 10:32:39;;;;;;;7.10;3.27;;;10.50;99.90;;;;;;5072555;28;20402;-77
2022/12/25 10:35:05;;;;;;;9.10;3.33;;;10.50;99.90;;;;;;5057752;28;20433;-78
2022/12/25 10:37:30;;;;;;;4.30;2.90;;;10.50;99.90;;;;;;5060326;28;20171;-78
2022/12/25 10:39:56;;;;;;;3.20;2.83;;;10.50;99.90;;;;;;5060647;28;21104;-78
2022/12/25 10:42:37;;;;;;;4.33;3.47;;;10.50;99.90;;;;;;5059573;28;20563;-78
2022/12/25 10:45:06;;;;;;;5.10;2.60;;;10.40;99.90;;;;;;5060757;28;20198;-78
2022/12/25 10:47:36;;;;;;;3.10;2.50;;;10.40;99.90;;;;;;5061297;28;20514;-78
2022/12/25 10:50:17;;;;;;;4.80;2.70;;;10.40;99.90;;;;;;5059682;28;20427;-78
2022/12/25 10:53:16;;;;;;;3.20;2.27;;;10.30;99.90;;;;;;5064296;28;20443;-78
2022/12/25 10:55:42;;;;;;;3.40;2.60;;;10.30;99.90;;;;;;5061950;28;20451;-78
2022/12/25 10:58:17;;;;;;;7.20;2.93;;;10.30;99.90;;;;;;5064325;28;20496;-78
2022/12/25 11:00:55;;;;;;;5.60;2.70;;;10.30;99.90;;;;;;5081058;28;20198;-77
2022/12/25 11:03:25;;;;;;;3.00;2.37;;;10.30;99.90;;;;;;5063544;28;20464;-78
2022/12/25 11:05:51;;;;;;;5.70;3.13;;;10.30;99.90;;;;;;5080752;28;20431;-77
2022/12/25 11:08:22;;;;;;;4.80;3.03;;;10.30;99.90;;;;;;5062910;28;20487;-77
2022/12/25 11:10:57;;;;;;;3.33;2.47;;;10.30;99.90;;;;;;5063909;28;20178;-78
2022/12/25 11:13:28;;;;;;;4.20;2.73;;;10.30;99.90;;;;;;5064311;28;20477;-78
2022/12/25 11:16:28;;;;;;;7.50;2.60;;;10.30;99.90;;;;;;5082599;28;20432;-77
2022/12/25 11:18:54;;;;;;;4.40;3.20;;;10.20;99.90;;;;;;5063837;28;20418;-78
2022/12/25 11:21:26;;;;;;;7.57;3.70;;;10.20;99.90;;;;;;5081770;28;20506;-78
2022/12/25 11:23:59;;;;;;;7.70;3.13;;;10.20;99.90;;;;;;5063335;28;20416;-78
2022/12/25 11:26:27;;;;;;;3.60;2.47;;;10.30;99.90;;;;;;5062532;28;20480;-77
2022/12/25 11:28:54;;;;;;;3.37;2.60;;;10.30;99.90;;;;;;5075326;28;20447;-78
2022/12/25 11:31:26;;;;;;;5.10;3.17;;;10.40;99.90;;;;;;5062285;28;20487;-77
2022/12/25 11:34:04;;;;;;;3.83;2.70;;;10.50;99.90;;;;;;5062452;28;20427;-77
2022/12/25 11:36:45;;;;;;;6.30;3.60;;;10.50;99.90;;;;;;5062122;28;20424;-77
2022/12/25 11:39:21;;;;;;;2.90;2.60;;;10.50;99.90;;;;;;5058939;28;20842;-77
2022/12/25 11:41:50;;;;;;;7.63;3.27;;;10.60;99.90;;;;;;5068757;28;20981;-77
2022/12/25 11:44:26;;;;;;;6.73;3.57;;;10.60;99.90;;;;;;5057813;28;20405;-77
2022/12/25 11:46:54;;;;;;;8.73;3.10;;;10.60;99.90;;;;;;5057475;28;20406;-78
2022/12/25 11:49:20;;;;;;;4.00;3.20;;;10.60;99.90;;;;;;5058888;28;20493;-77
2022/12/25 11:51:50;;;;;;;3.57;3.27;;;10.60;99.90;;;;;;5057771;28;20418;-77
2022/12/25 11:54:26;;;;;;;6.77;4.00;;;10.70;99.90;;;;;;5056042;28;20413;-77
2022/12/25 11:56:54;;;;;;;5.67;3.53;;;10.70;99.90;;;;;;5056353;28;20404;-77
2022/12/25 11:59:26;;;;;;;8.20;4.67;;;10.70;99.90;;;;;;5057115;28;20420;-77
2022/12/25 12:02:03;;;;;;;7.60;3.97;;;10.70;99.90;;;;;;5057589;28;20479;-76
2022/12/25 12:04:39;;;;;;;6.50;4.23;;;10.90;99.90;;;;;;5063555;28;20420;-77
2022/12/25 12:07:28;;;;;;;8.70;4.40;;;11.00;99.90;;;;;;5061860;28;20446;-77
2022/12/25 12:10:12;;;;;;;8.20;4.37;;;11.10;99.90;;;;;;5079059;28;20909;-77
2022/12/25 12:12:53;;;;;;;9.00;5.57;;;11.20;99.90;;;;;;5061143;28;20932;-76
2022/12/25 12:15:27;;;;;;;6.83;4.90;;;11.20;99.90;;;;;;5078343;28;20459;-77
2022/12/25 12:17:53;;;;;;;8.07;4.07;;;11.20;99.90;;;;;;5061388;28;20411;-77
2022/12/25 12:20:33;;;;;;;5.80;4.57;;;11.20;99.90;;;;;;5061520;28;20404;-77
2022/12/25 12:23:02;;;;;;;7.70;5.17;;;11.10;99.90;;;;;;5060756;28;20177;-78
2022/12/25 12:25:28;;;;;;;4.60;3.30;;;11.10;99.90;;;;;;5060809;28;20969;-77
2022/12/25 12:27:59;;;;;;;4.93;3.80;;;11.10;99.90;;;;;;5078602;28;20424;-77
2022/12/25 12:30:34;;;;;;;7.67;4.67;;;11.00;99.90;;;;;;5078689;28;20413;-77
2022/12/25 12:33:03;;;;;;;5.67;3.63;;;11.00;99.90;;;;;;5078336;28;20499;-77
2022/12/25 12:35:37;;;;;;;3.53;3.13;;;11.10;99.90;;;;;;5060318;28;20425;-77
2022/12/25 12:38:15;;;;;;;7.10;4.10;;;11.10;99.90;;;;;;5078527;28;20410;-77
2022/12/25 12:40:54;;;;;;;9.87;4.10;;;11.20;99.90;;;;;;5078419;28;20551;-77
2022/12/25 12:43:47;;;;;;;6.30;4.43;;;11.20;99.90;;;;;;5060313;28;20408;-77
2022/12/25 12:46:20;;;;;;;6.13;3.50;;;11.20;99.90;;;;;;5059964;28;20517;-77
2022/12/25 12:48:49;;;;;;;6.53;3.57;;;11.30;99.90;;;;;;5078509;28;20495;-77
2022/12/25 12:51:33;;;;;;;5.23;3.10;;;11.40;99.90;;;;;;5056527;28;20418;-77
2022/12/25 12:54:23;;;;;;;4.03;3.03;;;11.50;99.90;;;;;;5075185;28;20408;-77
2022/12/25 12:57:03;;;;;;;9.33;3.63;;;11.50;99.90;;;;;;5070315;28;20419;-77
2022/12/25 12:59:55;;;;;;;10.43;4.13;;;11.60;99.90;;;;;;5082587;28;20404;-77
2022/12/25 13:02:40;;;;;;;5.03;3.00;;;11.50;99.90;;;;;;5060565;28;20455;-77
2022/12/25 13:05:14;;;;;;;5.30;3.43;;;11.60;99.90;;;;;;5081289;28;20423;-76
2022/12/25 13:08:16;;;;;;;4.57;4.00;;;11.50;99.90;;;;;;5081039;28;20459;-77
2022/12/25 13:11:11;;;;;;;5.07;3.30;;;11.50;99.90;;;;;;5081004;28;20793;-77
2022/12/25 13:13:40;;;;;;;5.23;3.70;;;11.50;99.90;;;;;;5047766;28;20409;-77
2022/12/25 13:16:19;;;;;;;7.00;4.60;;;11.50;99.90;;;;;;5061620;28;20420;-77
2022/12/25 13:18:46;;;;;;;7.33;3.23;;;11.50;99.90;;;;;;5061057;28;20404;-77
2022/12/25 13:21:17;;;;;;;6.93;3.93;;;11.60;99.90;;;;;;5061151;28;20508;-77
2022/12/25 13:23:43;;;;;;;11.80;3.90;;;11.50;99.90;;;;;;5080143;28;20404;-77
2022/12/25 13:26:15;;;;;;;9.50;4.53;;;11.60;99.90;;;;;;5079498;28;20416;-77
2022/12/25 13:28:44;;;;;;;4.67;3.60;;;11.50;99.90;;;;;;5079503;28;20182;-77
2022/12/25 13:31:15;;;;;;;10.70;5.20;;;11.70;99.90;;;;;;5061769;28;20747;-77
2022/12/25 13:33:56;;;;;;;6.27;5.07;;;11.70;99.90;;;;;;5060802;28;20412;-77
2022/12/25 13:36:22;;;;;;;5.30;4.80;;;11.80;99.90;;;;;;5079776;28;20424;-77
2022/12/25 13:38:51;;;;;;;5.73;4.90;;;11.90;99.90;;;;;;5062091;28;20408;-77
2022/12/25 13:44:23;;;;;;;6.73;4.10;;;11.90;99.90;;;;;;5079382;28;20442;-76
2022/12/25 13:46:48;;;;;;;8.73;4.87;;;11.80;99.90;;;;;;5061606;28;20443;-77
2022/12/25 13:49:20;;;;;;;5.57;4.73;;;11.90;99.90;;;;;;5059433;28;20423;-78
2022/12/25 13:51:47;;;;;;;5.90;4.33;;;12.00;99.90;;;;;;5059343;28;20174;-77
2022/12/25 13:54:14;;;;;;;8.83;5.87;;;12.10;99.90;;;;;;5040642;28;20398;-77
2022/12/25 13:56:52;;;;;;;13.67;5.10;;;12.10;99.90;;;;;;5038538;28;20424;-78
2022/12/25 13:59:45;;;;;;;10.90;6.47;;;12.10;99.90;;;;;;5055669;28;20405;-78
2022/12/25 14:06:54;;;;;;;4.77;4.10;;;12.10;99.90;;;;;;5071685;28;20436;-79
2022/12/25 14:09:40;;;;;;;7.60;4.20;;;12.00;99.90;;;;;;4997194;28;20461;-78
2022/12/25 14:12:55;;;;;;;8.13;5.63;;;12.10;99.90;;;;;;4997182;28;20986;-78
2022/12/25 14:15:39;;;;;;;7.80;5.60;;;12.10;99.90;;;;;;4997148;28;20431;-78
2022/12/25 14:18:27;;;;;;;6.77;5.00;;;12.20;99.90;;;;;;4989100;28;20442;-78
2022/12/25 14:21:31;;;;;;;5.73;5.13;;;12.20;99.90;;;;;;4997420;28;20462;-78
2022/12/25 14:24:50;;;;;;;7.13;4.50;;;12.20;99.90;;;;;;4935987;29;20406;-78
2022/12/25 14:31:02;;;;;;;8.27;4.80;;;12.30;99.90;;;;;;5013920;28;20423;-79
2022/12/25 14:33:44;;;;;;;4.80;4.40;;;12.40;99.90;;;;;;5013953;28;21132;-78
2022/12/25 14:36:50;;;;;;;8.13;5.83;;;12.40;99.90;;;;;;4982350;28;20582;-78
2022/12/25 14:43:44;;;;;;;6.77;5.00;;;12.60;99.90;;;;;;5055400;28;20977;-78
2022/12/25 14:47:24;;;;;;;7.37;5.60;;;12.70;99.90;;;;;;4993790;28;20408;-78
2022/12/25 14:54:04;;;;;;;5.27;4.63;;;12.70;99.90;;;;;;4955250;29;20388;-77
2022/12/25 14:56:48;;;;;;;6.60;5.30;;;12.70;99.90;;;;;;4976159;28;20395;-78
2022/12/25 14:59:49;;;;;;;5.43;3.90;;;12.70;99.90;;;;;;4992971;28;20416;-78
2022/12/25 15:03:11;;;;;;;6.43;4.87;;;12.70;99.90;;;;;;4994496;28;20991;-79
2022/12/25 15:05:44;;;;;;;6.20;4.80;;;12.80;99.90;;;;;;5065769;28;20432;-78
2022/12/25 15:08:36;;;;;;;8.73;4.20;;;12.70;99.90;;;;;;5055968;28;20425;-78
2022/12/25 15:11:05;;;;;;;6.87;4.50;;;12.80;99.90;;;;;;5056467;28;20495;-78
2022/12/25 15:13:31;;;;;;;7.00;3.63;;;12.80;99.90;;;;;;5054426;28;20996;-78
2022/12/25 15:16:01;;;;;;;5.53;4.40;;;12.80;99.90;;;;;;5074251;28;20663;-78